sensor_id;sensor_type;location;lat;lon;timestamp;pressure;altitude;pressure_sealevel;temperature;humidity
47082;BME280;33066;49.296;14.470;2022-11-15T00:00:44;97080.84;;;11.59;38.87
47082;BME280;33066;49.296;14.470;2022-11-15T00:03:10;97081.25;;;11.89;38.71
47082;BME280;33066;49.296;14.470;2022-11-15T00:05:35;97083.45;;;11.88;38.83
47082;BME280;33066;49.296;14.470;2022-11-15T00:08:00;97081.22;;;11.67;39.01
47082;BME280;33066;49.296;14.470;2022-11-15T00:10:25;97070.51;;;11.93;39.22
47082;BME280;33066;49.296;14.470;2022-11-15T00:12:51;97061.53;;;12.24;39.26
47082;BME280;33066;49.296;14.470;2022-11-15T00:15:16;97064.47;;;12.00;39.16
47082;BME280;33066;49.296;14.470;2022-11-15T00:17:41;97067.16;;;11.98;39.07
47082;BME280;33066;49.296;14.470;2022-11-15T00:20:08;97067.99;;;11.98;38.97
47082;BME280;33066;49.296;14.470;2022-11-15T00:22:32;97072.47;;;11.94;38.96
47082;BME280;33066;49.296;14.470;2022-11-15T00:24:57;97069.70;;;11.74;39.01
47082;BME280;33066;49.296;14.470;2022-11-15T00:27:23;97069.56;;;12.24;38.92
47082;BME280;33066;49.296;14.470;2022-11-15T00:29:49;97070.04;;;11.71;39.10
47082;BME280;33066;49.296;14.470;2022-11-15T00:32:14;97072.06;;;12.16;39.27
47082;BME280;33066;49.296;14.470;2022-11-15T00:34:39;97070.88;;;11.98;39.52
47082;BME280;33066;49.296;14.470;2022-11-15T00:37:06;97069.68;;;12.06;39.51
47082;BME280;33066;49.296;14.470;2022-11-15T00:39:30;97064.97;;;12.09;39.56
47082;BME280;33066;49.296;14.470;2022-11-15T00:41:56;97063.70;;;12.13;39.64
47082;BME280;33066;49.296;14.470;2022-11-15T00:44:21;97067.32;;;12.11;39.66
47082;BME280;33066;49.296;14.470;2022-11-15T00:46:47;97071.58;;;11.83;39.67
47082;BME280;33066;49.296;14.470;2022-11-15T00:49:12;97071.35;;;12.08;39.75
47082;BME280;33066;49.296;14.470;2022-11-15T00:51:38;97065.46;;;12.08;39.82
47082;BME280;33066;49.296;14.470;2022-11-15T00:54:03;97067.06;;;12.08;39.89
47082;BME280;33066;49.296;14.470;2022-11-15T00:56:29;97074.85;;;11.86;39.90
47082;BME280;33066;49.296;14.470;2022-11-15T00:58:55;97075.66;;;12.22;39.98
47082;BME280;33066;49.296;14.470;2022-11-15T01:01:20;97071.10;;;11.62;40.24
47082;BME280;33066;49.296;14.470;2022-11-15T01:03:45;97068.41;;;12.09;40.36
47082;BME280;33066;49.296;14.470;2022-11-15T01:06:11;97057.10;;;12.13;40.37
47082;BME280;33066;49.296;14.470;2022-11-15T01:08:37;97052.58;;;12.18;40.32
47082;BME280;33066;49.296;14.470;2022-11-15T01:11:03;97047.98;;;11.94;40.39
47082;BME280;33066;49.296;14.470;2022-11-15T01:13:30;97045.07;;;12.14;40.43
47082;BME280;33066;49.296;14.470;2022-11-15T01:15:53;97044.79;;;12.18;40.49
47082;BME280;33066;49.296;14.470;2022-11-15T01:18:18;97043.08;;;11.95;40.53
47082;BME280;33066;49.296;14.470;2022-11-15T01:20:44;97041.75;;;11.98;40.56
47082;BME280;33066;49.296;14.470;2022-11-15T01:23:10;97037.21;;;11.77;40.61
47082;BME280;33066;49.296;14.470;2022-11-15T01:25:35;97035.80;;;12.06;40.66
47082;BME280;33066;49.296;14.470;2022-11-15T01:28:00;97034.61;;;12.13;40.54
47082;BME280;33066;49.296;14.470;2022-11-15T01:30:25;97031.20;;;11.88;40.58
47082;BME280;33066;49.296;14.470;2022-11-15T01:32:51;97033.94;;;12.16;40.56
47082;BME280;33066;49.296;14.470;2022-11-15T01:35:16;97039.09;;;12.20;40.62
47082;BME280;33066;49.296;14.470;2022-11-15T01:37:41;97037.65;;;12.48;40.63
47082;BME280;33066;49.296;14.470;2022-11-15T01:40:08;97033.48;;;12.29;40.66
47082;BME280;33066;49.296;14.470;2022-11-15T01:42:32;97024.20;;;12.02;40.66
47082;BME280;33066;49.296;14.470;2022-11-15T01:44:58;97021.20;;;12.03;40.65
47082;BME280;33066;49.296;14.470;2022-11-15T01:47:26;97018.61;;;12.48;40.77
47082;BME280;33066;49.296;14.470;2022-11-15T01:49:55;97017.12;;;12.01;40.80
47082;BME280;33066;49.296;14.470;2022-11-15T01:52:17;97012.10;;;12.32;40.75
47082;BME280;33066;49.296;14.470;2022-11-15T01:54:40;97007.48;;;12.07;40.74
47082;BME280;33066;49.296;14.470;2022-11-15T01:57:09;97005.01;;;12.07;40.75
47082;BME280;33066;49.296;14.470;2022-11-15T01:59:31;97002.11;;;12.26;40.93
47082;BME280;33066;49.296;14.470;2022-11-15T02:01:56;96995.15;;;12.26;40.93
47082;BME280;33066;49.296;14.470;2022-11-15T02:04:25;96991.66;;;12.30;40.90
47082;BME280;33066;49.296;14.470;2022-11-15T02:06:48;96993.18;;;12.33;40.93
47082;BME280;33066;49.296;14.470;2022-11-15T02:09:13;96992.49;;;12.59;40.84
47082;BME280;33066;49.296;14.470;2022-11-15T02:11:38;96989.42;;;12.10;40.89
47082;BME280;33066;49.296;14.470;2022-11-15T02:14:05;96991.18;;;12.33;41.04
47082;BME280;33066;49.296;14.470;2022-11-15T02:16:34;96988.59;;;12.35;41.08
47082;BME280;33066;49.296;14.470;2022-11-15T02:18:59;96987.86;;;12.13;41.05
47082;BME280;33066;49.296;14.470;2022-11-15T02:21:27;96980.77;;;12.14;40.94
47082;BME280;33066;49.296;14.470;2022-11-15T02:23:56;96976.08;;;12.40;41.01
47082;BME280;33066;49.296;14.470;2022-11-15T02:28:44;96968.49;;;12.20;41.05
47082;BME280;33066;49.296;14.470;2022-11-15T02:31:05;96968.50;;;12.31;40.97
47082;BME280;33066;49.296;14.470;2022-11-15T02:33:32;96968.86;;;12.62;40.86
47082;BME280;33066;49.296;14.470;2022-11-15T02:35:57;96967.90;;;12.40;40.73
47082;BME280;33066;49.296;14.470;2022-11-15T02:38:22;96964.84;;;12.39;40.87
47082;BME280;33066;49.296;14.470;2022-11-15T02:40:47;96961.18;;;12.42;40.81
47082;BME280;33066;49.296;14.470;2022-11-15T02:43:10;96957.85;;;12.86;40.91
47082;BME280;33066;49.296;14.470;2022-11-15T02:45:37;96955.64;;;12.33;40.90
47082;BME280;33066;49.296;14.470;2022-11-15T02:47:59;96952.42;;;12.26;41.01
47082;BME280;33066;49.296;14.470;2022-11-15T02:50:27;96955.52;;;12.50;41.02
47082;BME280;33066;49.296;14.470;2022-11-15T02:52:49;96955.84;;;12.21;41.11
47082;BME280;33066;49.296;14.470;2022-11-15T02:55:26;96956.86;;;12.20;41.15
47082;BME280;33066;49.296;14.470;2022-11-15T02:57:43;96954.35;;;12.22;41.08
47082;BME280;33066;49.296;14.470;2022-11-15T03:00:07;96951.29;;;12.24;41.10
47082;BME280;33066;49.296;14.470;2022-11-15T03:02:41;96950.80;;;12.22;41.09
47082;BME280;33066;49.296;14.470;2022-11-15T03:04:58;96950.82;;;12.27;41.08
47082;BME280;33066;49.296;14.470;2022-11-15T03:07:25;96947.73;;;12.30;41.01
47082;BME280;33066;49.296;14.470;2022-11-15T03:09:52;96946.91;;;12.29;41.04
47082;BME280;33066;49.296;14.470;2022-11-15T03:12:15;96946.83;;;12.54;40.99
47082;BME280;33066;49.296;14.470;2022-11-15T03:14:39;96948.91;;;12.30;40.99
47082;BME280;33066;49.296;14.470;2022-11-15T03:17:10;96947.99;;;12.60;40.83
47082;BME280;33066;49.296;14.470;2022-11-15T03:19:32;96944.33;;;12.29;40.97
47082;BME280;33066;49.296;14.470;2022-11-15T03:21:55;96940.05;;;12.31;40.97
47082;BME280;33066;49.296;14.470;2022-11-15T03:24:19;96941.63;;;12.28;40.88
47082;BME280;33066;49.296;14.470;2022-11-15T03:26:45;96939.33;;;12.48;40.96
47082;BME280;33066;49.296;14.470;2022-11-15T03:29:12;96938.83;;;12.16;40.96
47082;BME280;33066;49.296;14.470;2022-11-15T03:31:39;96936.30;;;12.12;41.15
47082;BME280;33066;49.296;14.470;2022-11-15T03:34:03;96938.45;;;12.14;41.06
47082;BME280;33066;49.296;14.470;2022-11-15T03:36:27;96936.07;;;12.19;41.15
47082;BME280;33066;49.296;14.470;2022-11-15T03:38:54;96935.96;;;12.16;41.22
47082;BME280;33066;49.296;14.470;2022-11-15T03:41:22;96933.14;;;12.43;41.23
47082;BME280;33066;49.296;14.470;2022-11-15T03:43:47;96926.88;;;12.43;41.28
47082;BME280;33066;49.296;14.470;2022-11-15T03:46:11;96923.53;;;12.19;41.17
47082;BME280;33066;49.296;14.470;2022-11-15T03:48:35;96918.28;;;12.18;41.12
47082;BME280;33066;49.296;14.470;2022-11-15T03:50:58;96911.67;;;12.38;41.22
47082;BME280;33066;49.296;14.470;2022-11-15T03:53:23;96909.24;;;12.15;41.27
47082;BME280;33066;49.296;14.470;2022-11-15T03:55:49;96909.63;;;12.18;41.33
47082;BME280;33066;49.296;14.470;2022-11-15T03:58:14;96910.72;;;12.42;41.32
47082;BME280;33066;49.296;14.470;2022-11-15T04:00:40;96911.11;;;12.20;41.33
47082;BME280;33066;49.296;14.470;2022-11-15T04:03:05;96911.58;;;12.42;41.47
47082;BME280;33066;49.296;14.470;2022-11-15T04:05:31;96912.07;;;12.15;41.41
47082;BME280;33066;49.296;14.470;2022-11-15T04:07:57;96915.34;;;12.43;41.35
47082;BME280;33066;49.296;14.470;2022-11-15T04:13:02;96908.36;;;12.65;40.70
47082;BME280;33066;49.296;14.470;2022-11-15T04:15:27;96913.91;;;12.61;40.70
47082;BME280;33066;49.296;14.470;2022-11-15T04:17:54;96916.56;;;12.52;40.70
47082;BME280;33066;49.296;14.470;2022-11-15T04:20:19;96916.41;;;12.25;40.80
47082;BME280;33066;49.296;14.470;2022-11-15T04:22:43;96918.56;;;12.47;40.90
47082;BME280;33066;49.296;14.470;2022-11-15T04:25:09;96918.47;;;12.44;40.90
47082;BME280;33066;49.296;14.470;2022-11-15T04:27:35;96917.97;;;12.47;40.90
47082;BME280;33066;49.296;14.470;2022-11-15T04:30:00;96919.20;;;12.49;40.87
47082;BME280;33066;49.296;14.470;2022-11-15T04:32:26;96917.74;;;12.51;40.84
47082;BME280;33066;49.296;14.470;2022-11-15T04:34:51;96915.51;;;12.47;40.92
47082;BME280;33066;49.296;14.470;2022-11-15T04:37:16;96911.60;;;12.45;40.86
47082;BME280;33066;49.296;14.470;2022-11-15T04:39:43;96911.78;;;12.45;40.87
47082;BME280;33066;49.296;14.470;2022-11-15T04:42:08;96909.73;;;12.46;40.83
47082;BME280;33066;49.296;14.470;2022-11-15T04:44:33;96908.09;;;12.44;40.79
47082;BME280;33066;49.296;14.470;2022-11-15T04:46:58;96906.36;;;12.40;40.89
47082;BME280;33066;49.296;14.470;2022-11-15T04:49:23;96905.06;;;12.40;40.85
47082;BME280;33066;49.296;14.470;2022-11-15T04:51:49;96901.51;;;12.42;40.97
47082;BME280;33066;49.296;14.470;2022-11-15T04:54:14;96895.91;;;12.40;40.92
47082;BME280;33066;49.296;14.470;2022-11-15T04:56:40;96891.12;;;12.41;40.92
47082;BME280;33066;49.296;14.470;2022-11-15T04:59:05;96888.36;;;12.69;40.89
47082;BME280;33066;49.296;14.470;2022-11-15T05:01:30;96886.38;;;12.71;41.01
47082;BME280;33066;49.296;14.470;2022-11-15T05:03:56;96889.57;;;12.49;40.84
47082;BME280;33066;49.296;14.470;2022-11-15T05:06:21;96893.08;;;12.53;41.27
47082;BME280;33066;49.296;14.470;2022-11-15T05:08:47;96892.75;;;12.50;41.23
47082;BME280;33066;49.296;14.470;2022-11-15T05:11:12;96890.81;;;12.51;41.33
47082;BME280;33066;49.296;14.470;2022-11-15T05:13:37;96886.59;;;11.98;41.12
47082;BME280;33066;49.296;14.470;2022-11-15T05:16:03;96882.60;;;12.45;41.24
47082;BME280;33066;49.296;14.470;2022-11-15T05:18:28;96881.81;;;12.47;40.83
47082;BME280;33066;49.296;14.470;2022-11-15T05:20:53;96878.18;;;12.69;40.80
47082;BME280;33066;49.296;14.470;2022-11-15T05:23:18;96867.22;;;12.69;40.82
47082;BME280;33066;49.296;14.470;2022-11-15T05:25:43;96866.17;;;12.47;41.10
47082;BME280;33066;49.296;14.470;2022-11-15T05:28:08;96870.54;;;12.50;41.09
47082;BME280;33066;49.296;14.470;2022-11-15T05:30:34;96876.38;;;12.50;40.86
47082;BME280;33066;49.296;14.470;2022-11-15T05:33:00;96877.66;;;12.49;40.74
47082;BME280;33066;49.296;14.470;2022-11-15T05:35:30;96877.12;;;12.48;40.94
47082;BME280;33066;49.296;14.470;2022-11-15T05:37:51;96873.05;;;12.53;40.88
47082;BME280;33066;49.296;14.470;2022-11-15T05:40:16;96874.32;;;12.59;40.74
47082;BME280;33066;49.296;14.470;2022-11-15T05:42:41;96873.12;;;12.61;40.81
47082;BME280;33066;49.296;14.470;2022-11-15T05:45:08;96871.98;;;12.61;40.70
47082;BME280;33066;49.296;14.470;2022-11-15T05:47:33;96868.32;;;12.29;40.47
47082;BME280;33066;49.296;14.470;2022-11-15T05:49:57;96866.51;;;12.36;40.54
47082;BME280;33066;49.296;14.470;2022-11-15T05:52:27;96869.13;;;12.26;40.64
47082;BME280;33066;49.296;14.470;2022-11-15T05:54:49;96869.93;;;12.16;40.64
47082;BME280;33066;49.296;14.470;2022-11-15T05:57:15;96868.10;;;12.15;40.68
47082;BME280;33066;49.296;14.470;2022-11-15T05:59:41;96868.01;;;12.15;40.83
47082;BME280;33066;49.296;14.470;2022-11-15T06:02:06;96865.65;;;12.32;40.74
47082;BME280;33066;49.296;14.470;2022-11-15T06:04:31;96870.18;;;11.94;40.70
47082;BME280;33066;49.296;14.470;2022-11-15T06:06:58;96876.26;;;12.19;40.62
47082;BME280;33066;49.296;14.470;2022-11-15T06:09:22;96875.68;;;11.91;40.63
47082;BME280;33066;49.296;14.470;2022-11-15T06:11:47;96873.59;;;12.05;40.62
47082;BME280;33066;49.296;14.470;2022-11-15T06:14:13;96873.70;;;11.83;40.58
47082;BME280;33066;49.296;14.470;2022-11-15T06:16:38;96875.49;;;11.77;40.60
47082;BME280;33066;49.296;14.470;2022-11-15T06:19:06;96878.26;;;12.21;40.67
47082;BME280;33066;49.296;14.470;2022-11-15T06:21:29;96881.44;;;11.86;40.86
47082;BME280;33066;49.296;14.470;2022-11-15T06:23:54;96883.13;;;12.16;40.71
47082;BME280;33066;49.296;14.470;2022-11-15T06:26:19;96881.62;;;11.77;40.56
47082;BME280;33066;49.296;14.470;2022-11-15T06:28:45;96880.92;;;11.75;40.39
47082;BME280;33066;49.296;14.470;2022-11-15T06:31:11;96880.89;;;11.56;40.31
47082;BME280;33066;49.296;14.470;2022-11-15T06:33:36;96883.47;;;11.85;40.31
47082;BME280;33066;49.296;14.470;2022-11-15T06:36:02;96887.21;;;11.70;40.40
47082;BME280;33066;49.296;14.470;2022-11-15T06:38:27;96890.94;;;11.68;40.42
47082;BME280;33066;49.296;14.470;2022-11-15T06:40:52;96889.62;;;11.65;40.46
47082;BME280;33066;49.296;14.470;2022-11-15T06:43:18;96889.66;;;11.63;40.34
47082;BME280;33066;49.296;14.470;2022-11-15T06:45:43;96889.35;;;11.75;40.30
47082;BME280;33066;49.296;14.470;2022-11-15T06:48:09;96889.22;;;11.33;40.12
47082;BME280;33066;49.296;14.470;2022-11-15T06:50:35;96886.07;;;11.82;39.95
47082;BME280;33066;49.296;14.470;2022-11-15T06:53:03;96881.43;;;10.77;39.67
47082;BME280;33066;49.296;14.470;2022-11-15T06:55:25;96882.97;;;12.11;39.07
47082;BME280;33066;49.296;14.470;2022-11-15T06:57:52;96886.42;;;12.27;39.34
47082;BME280;33066;49.296;14.470;2022-11-15T07:00:17;96890.42;;;12.04;39.52
47082;BME280;33066;49.296;14.470;2022-11-15T07:02:42;96892.19;;;12.11;39.89
47082;BME280;33066;49.296;14.470;2022-11-15T07:05:08;96891.13;;;11.96;40.08
47082;BME280;33066;49.296;14.470;2022-11-15T07:07:32;96889.73;;;12.19;39.72
47082;BME280;33066;49.296;14.470;2022-11-15T07:09:57;96887.78;;;12.18;39.61
47082;BME280;33066;49.296;14.470;2022-11-15T07:12:23;96888.16;;;12.24;39.60
47082;BME280;33066;49.296;14.470;2022-11-15T07:14:48;96887.12;;;11.98;39.34
47082;BME280;33066;49.296;14.470;2022-11-15T07:17:14;96882.02;;;12.03;39.42
47082;BME280;33066;49.296;14.470;2022-11-15T07:19:39;96881.22;;;12.42;39.09
47082;BME280;33066;49.296;14.470;2022-11-15T07:22:04;96882.08;;;11.84;39.15
47082;BME280;33066;49.296;14.470;2022-11-15T07:24:30;96877.89;;;12.34;39.35
47082;BME280;33066;49.296;14.470;2022-11-15T07:26:55;96872.07;;;12.03;39.29
47082;BME280;33066;49.296;14.470;2022-11-15T07:29:20;96867.91;;;11.79;39.74
47082;BME280;33066;49.296;14.470;2022-11-15T07:31:46;96867.94;;;12.33;39.47
47082;BME280;33066;49.296;14.470;2022-11-15T07:34:11;96867.56;;;11.90;39.41
47082;BME280;33066;49.296;14.470;2022-11-15T07:36:37;96864.92;;;12.21;39.51
47082;BME280;33066;49.296;14.470;2022-11-15T07:39:02;96863.10;;;12.09;39.60
47082;BME280;33066;49.296;14.470;2022-11-15T07:41:29;96862.36;;;12.15;39.18
47082;BME280;33066;49.296;14.470;2022-11-15T07:43:54;96863.07;;;12.16;38.90
47082;BME280;33066;49.296;14.470;2022-11-15T07:46:19;96865.46;;;12.43;38.87
47082;BME280;33066;49.296;14.470;2022-11-15T07:48:45;96870.09;;;12.13;38.90
47082;BME280;33066;49.296;14.470;2022-11-15T07:51:11;96869.27;;;12.19;38.75
47082;BME280;33066;49.296;14.470;2022-11-15T07:53:35;96864.52;;;12.11;38.89
47082;BME280;33066;49.296;14.470;2022-11-15T07:56:01;96862.40;;;11.72;39.01
47082;BME280;33066;49.296;14.470;2022-11-15T07:58:26;96864.22;;;11.63;38.88
47082;BME280;33066;49.296;14.470;2022-11-15T08:00:52;96865.54;;;11.59;38.94
47082;BME280;33066;49.296;14.470;2022-11-15T08:03:17;96858.44;;;11.87;39.11
47082;BME280;33066;49.296;14.470;2022-11-15T08:05:43;96858.90;;;11.97;38.94
47082;BME280;33066;49.296;14.470;2022-11-15T08:08:08;96862.49;;;12.01;38.70
47082;BME280;33066;49.296;14.470;2022-11-15T08:10:33;96862.12;;;12.24;38.75
47082;BME280;33066;49.296;14.470;2022-11-15T08:12:59;96867.58;;;11.99;38.70
47082;BME280;33066;49.296;14.470;2022-11-15T08:15:23;96870.57;;;11.99;38.71
47082;BME280;33066;49.296;14.470;2022-11-15T08:17:54;96867.06;;;11.94;38.76
47082;BME280;33066;49.296;14.470;2022-11-15T08:20:14;96865.94;;;11.85;38.66
47082;BME280;33066;49.296;14.470;2022-11-15T08:22:39;96865.67;;;11.64;38.82
47082;BME280;33066;49.296;14.470;2022-11-15T08:25:05;96865.65;;;11.56;38.81
47082;BME280;33066;49.296;14.470;2022-11-15T08:27:30;96863.11;;;11.63;38.93
47082;BME280;33066;49.296;14.470;2022-11-15T08:29:55;96861.40;;;11.79;38.96
47082;BME280;33066;49.296;14.470;2022-11-15T08:32:20;96859.97;;;11.81;38.95
47082;BME280;33066;49.296;14.470;2022-11-15T08:34:46;96860.73;;;11.70;39.08
47082;BME280;33066;49.296;14.470;2022-11-15T08:37:11;96859.61;;;11.68;38.97
47082;BME280;33066;49.296;14.470;2022-11-15T08:39:37;96861.83;;;11.44;39.07
47082;BME280;33066;49.296;14.470;2022-11-15T08:42:02;96861.99;;;11.40;38.94
47082;BME280;33066;49.296;14.470;2022-11-15T08:44:27;96863.70;;;11.64;39.07
47082;BME280;33066;49.296;14.470;2022-11-15T08:46:53;96865.20;;;11.53;39.00
47082;BME280;33066;49.296;14.470;2022-11-15T08:49:18;96869.06;;;11.83;38.99
47082;BME280;33066;49.296;14.470;2022-11-15T08:51:43;96872.68;;;11.68;38.93
47082;BME280;33066;49.296;14.470;2022-11-15T08:54:09;96870.26;;;11.86;38.87
47082;BME280;33066;49.296;14.470;2022-11-15T08:56:35;96871.63;;;11.64;38.87
47082;BME280;33066;49.296;14.470;2022-11-15T08:59:01;96872.58;;;11.89;38.85
47082;BME280;33066;49.296;14.470;2022-11-15T09:01:26;96871.16;;;11.65;38.77
47082;BME280;33066;49.296;14.470;2022-11-15T09:03:51;96865.12;;;11.79;38.88
47082;BME280;33066;49.296;14.470;2022-11-15T09:06:17;96864.36;;;11.50;39.02
47082;BME280;33066;49.296;14.470;2022-11-15T09:08:42;96858.82;;;11.33;38.94
47082;BME280;33066;49.296;14.470;2022-11-15T09:11:09;96856.95;;;11.68;39.00
47082;BME280;33066;49.296;14.470;2022-11-15T09:13:33;96857.45;;;12.00;39.05
47082;BME280;33066;49.296;14.470;2022-11-15T09:15:59;96856.28;;;11.85;38.99
47082;BME280;33066;49.296;14.470;2022-11-15T09:18:23;96856.16;;;11.88;38.84
47082;BME280;33066;49.296;14.470;2022-11-15T09:20:49;96851.69;;;11.75;38.88
47082;BME280;33066;49.296;14.470;2022-11-15T09:23:14;96845.99;;;11.82;38.97
47082;BME280;33066;49.296;14.470;2022-11-15T09:25:39;96847.85;;;12.10;39.05
47082;BME280;33066;49.296;14.470;2022-11-15T09:28:06;96848.73;;;12.11;39.23
47082;BME280;33066;49.296;14.470;2022-11-15T09:30:30;96847.68;;;11.87;39.13
47082;BME280;33066;49.296;14.470;2022-11-15T09:32:56;96847.10;;;11.87;39.30
47082;BME280;33066;49.296;14.470;2022-11-15T09:35:21;96844.43;;;12.03;39.20
47082;BME280;33066;49.296;14.470;2022-11-15T09:37:46;96842.66;;;11.90;39.05
47082;BME280;33066;49.296;14.470;2022-11-15T09:40:13;96839.70;;;12.51;38.94
47082;BME280;33066;49.296;14.470;2022-11-15T09:42:52;96833.88;;;12.07;38.89
47082;BME280;33066;49.296;14.470;2022-11-15T09:45:12;96828.51;;;12.15;38.84
47082;BME280;33066;49.296;14.470;2022-11-15T09:47:40;96825.24;;;12.28;38.73
47082;BME280;33066;49.296;14.470;2022-11-15T09:49:53;96821.39;;;12.31;38.78
47082;BME280;33066;49.296;14.470;2022-11-15T09:52:19;96824.38;;;12.62;38.70
47082;BME280;33066;49.296;14.470;2022-11-15T09:54:47;96818.92;;;12.42;38.59
47082;BME280;33066;49.296;14.470;2022-11-15T09:57:12;96813.58;;;12.43;38.59
47082;BME280;33066;49.296;14.470;2022-11-15T09:59:46;96812.43;;;12.48;38.62
47082;BME280;33066;49.296;14.470;2022-11-15T10:02:09;96803.19;;;12.50;38.63
47082;BME280;33066;49.296;14.470;2022-11-15T10:04:26;96795.08;;;12.84;38.66
47082;BME280;33066;49.296;14.470;2022-11-15T10:06:54;96789.75;;;12.70;38.58
47082;BME280;33066;49.296;14.470;2022-11-15T10:09:19;96782.80;;;12.71;38.58
47082;BME280;33066;49.296;14.470;2022-11-15T10:11:40;96779.54;;;12.68;38.62
47082;BME280;33066;49.296;14.470;2022-11-15T10:14:11;96771.78;;;12.88;38.47
47082;BME280;33066;49.296;14.470;2022-11-15T10:16:48;96769.92;;;12.53;38.57
47082;BME280;33066;49.296;14.470;2022-11-15T10:19:03;96769.88;;;12.54;38.74
47082;BME280;33066;49.296;14.470;2022-11-15T10:21:29;96770.41;;;12.60;38.83
47082;BME280;33066;49.296;14.470;2022-11-15T10:23:48;96773.00;;;12.62;38.81
47082;BME280;33066;49.296;14.470;2022-11-15T10:26:16;96773.31;;;12.66;38.65
47082;BME280;33066;49.296;14.470;2022-11-15T10:28:38;96766.73;;;12.65;38.57
47082;BME280;33066;49.296;14.470;2022-11-15T10:33:32;96761.34;;;12.43;38.84
47082;BME280;33066;49.296;14.470;2022-11-15T10:36:15;96764.71;;;12.74;38.91
47082;BME280;33066;49.296;14.470;2022-11-15T10:38:20;96765.15;;;12.64;38.88
47082;BME280;33066;49.296;14.470;2022-11-15T10:40:46;96759.93;;;12.91;38.79
47082;BME280;33066;49.296;14.470;2022-11-15T10:43:15;96753.77;;;12.64;38.74
47082;BME280;33066;49.296;14.470;2022-11-15T10:45:37;96748.78;;;12.82;38.83
47082;BME280;33066;49.296;14.470;2022-11-15T10:48:20;96743.68;;;12.57;38.80
47082;BME280;33066;49.296;14.470;2022-11-15T10:50:30;96741.24;;;12.87;38.93
47082;BME280;33066;49.296;14.470;2022-11-15T10:52:52;96737.03;;;12.89;38.91
47082;BME280;33066;49.296;14.470;2022-11-15T10:55:24;96738.34;;;12.89;38.92
47082;BME280;33066;49.296;14.470;2022-11-15T10:57:50;96736.79;;;12.96;38.80
47082;BME280;33066;49.296;14.470;2022-11-15T11:02:35;96729.27;;;12.92;38.78
47082;BME280;33066;49.296;14.470;2022-11-15T11:04:59;96722.61;;;12.94;38.80
47082;BME280;33066;49.296;14.470;2022-11-15T11:07:26;96721.97;;;12.96;38.85
47082;BME280;33066;49.296;14.470;2022-11-15T11:09:58;96720.78;;;13.01;38.82
47082;BME280;33066;49.296;14.470;2022-11-15T11:12:19;96721.50;;;13.03;38.89
47082;BME280;33066;49.296;14.470;2022-11-15T11:14:39;96718.17;;;12.80;38.80
47082;BME280;33066;49.296;14.470;2022-11-15T11:17:11;96710.64;;;13.05;38.81
47082;BME280;33066;49.296;14.470;2022-11-15T11:19:45;96708.71;;;12.99;38.97
47082;BME280;33066;49.296;14.470;2022-11-15T11:22:03;96707.69;;;12.80;38.84
47082;BME280;33066;49.296;14.470;2022-11-15T11:24:30;96707.40;;;13.05;38.89
47082;BME280;33066;49.296;14.470;2022-11-15T11:26:57;96704.88;;;13.07;39.05
47082;BME280;33066;49.296;14.470;2022-11-15T11:29:26;96701.61;;;12.82;39.08
47082;BME280;33066;49.296;14.470;2022-11-15T11:31:43;96697.49;;;13.01;39.11
47082;BME280;33066;49.296;14.470;2022-11-15T11:34:13;96694.26;;;12.78;39.06
47082;BME280;33066;49.296;14.470;2022-11-15T11:36:37;96692.48;;;12.86;38.96
47082;BME280;33066;49.296;14.470;2022-11-15T11:39:08;96692.79;;;12.71;38.88
47082;BME280;33066;49.296;14.470;2022-11-15T11:43:54;96696.01;;;13.28;38.72
47082;BME280;33066;49.296;14.470;2022-11-15T11:46:32;96692.11;;;13.25;38.66
47082;BME280;33066;49.296;14.470;2022-11-15T11:48:41;96688.12;;;12.77;38.68
47082;BME280;33066;49.296;14.470;2022-11-15T11:51:08;96679.77;;;12.70;38.76
47082;BME280;33066;49.296;14.470;2022-11-15T11:53:32;96673.13;;;13.16;38.81
47082;BME280;33066;49.296;14.470;2022-11-15T11:55:55;96668.31;;;13.17;38.86
47082;BME280;33066;49.296;14.470;2022-11-15T11:58:21;96666.70;;;12.90;38.92
47082;BME280;33066;49.296;14.470;2022-11-15T12:00:49;96665.10;;;13.13;38.87
47082;BME280;33066;49.296;14.470;2022-11-15T12:03:14;96660.17;;;13.09;38.84
47082;BME280;33066;49.296;14.470;2022-11-15T12:05:37;96658.11;;;13.13;38.85
47082;BME280;33066;49.296;14.470;2022-11-15T12:08:18;96654.66;;;12.57;39.09
47082;BME280;33066;49.296;14.470;2022-11-15T12:10:30;96649.65;;;13.03;39.49
47082;BME280;33066;49.296;14.470;2022-11-15T12:12:58;96647.78;;;12.97;39.64
47082;BME280;33066;49.296;14.470;2022-11-15T12:15:20;96641.63;;;12.90;39.80
47082;BME280;33066;49.296;14.470;2022-11-15T12:17:43;96639.32;;;12.68;39.72
47082;BME280;33066;49.296;14.470;2022-11-15T12:20:15;96637.29;;;12.98;40.02
47082;BME280;33066;49.296;14.470;2022-11-15T12:22:38;96636.53;;;12.91;39.94
47082;BME280;33066;49.296;14.470;2022-11-15T12:25:03;96632.39;;;12.68;39.87
47082;BME280;33066;49.296;14.470;2022-11-15T12:27:30;96625.98;;;12.68;40.07
47082;BME280;33066;49.296;14.470;2022-11-15T12:29:52;96621.82;;;12.71;40.06
47082;BME280;33066;49.296;14.470;2022-11-15T12:32:23;96617.22;;;12.70;40.12
47082;BME280;33066;49.296;14.470;2022-11-15T12:34:44;96614.66;;;12.73;40.13
47082;BME280;33066;49.296;14.470;2022-11-15T12:47:00;96603.35;;;12.94;39.88
47082;BME280;33066;49.296;14.470;2022-11-15T12:56:28;96588.75;;;12.80;39.81
47082;BME280;33066;49.296;14.470;2022-11-15T12:58:56;96583.18;;;12.57;40.04
47082;BME280;33066;49.296;14.470;2022-11-15T13:08:45;96559.73;;;12.94;39.92
47082;BME280;33066;49.296;14.470;2022-11-15T13:15:55;96552.04;;;12.45;40.04
47082;BME280;33066;49.296;14.470;2022-11-15T13:18:32;96550.96;;;12.73;40.06
47082;BME280;33066;49.296;14.470;2022-11-15T13:20:45;96544.58;;;12.83;40.00